sensor_id;sensor_type;location;lat;lon;timestamp;P1;durP1;ratioP1;P2;durP2;ratioP2
29662;SDS011;16578;53.266;7.920;2023-03-01T00:00:12;15.38;;;9.98;;
29662;SDS011;16578;53.266;7.920;2023-03-01T00:02:38;15.55;;;9.50;;
29662;SDS011;16578;53.266;7.920;2023-03-01T00:05:03;14.68;;;9.50;;
29662;SDS011;16578;53.266;7.920;2023-03-01T00:07:29;12.40;;;9.65;;
29662;SDS011;16578;53.266;7.920;2023-03-01T00:09:55;17.45;;;10.02;;
29662;SDS011;16578;53.266;7.920;2023-03-01T00:12:21;16.85;;;10.38;;
29662;SDS011;16578;53.266;7.920;2023-03-01T00:14:47;15.13;;;10.93;;
29662;SDS011;16578;53.266;7.920;2023-03-01T00:17:12;15.98;;;10.35;;
29662;SDS011;16578;53.266;7.920;2023-03-01T00:19:38;15.38;;;10.60;;
29662;SDS011;16578;53.266;7.920;2023-03-01T00:22:04;14.77;;;9.80;;
29662;SDS011;16578;53.266;7.920;2023-03-01T00:24:29;16.20;;;10.10;;
29662;SDS011;16578;53.266;7.920;2023-03-01T00:26:55;13.95;;;9.77;;
29662;SDS011;16578;53.266;7.920;2023-03-01T00:29:22;15.23;;;9.75;;
29662;SDS011;16578;53.266;7.920;2023-03-01T00:31:48;15.38;;;9.73;;
29662;SDS011;16578;53.266;7.920;2023-03-01T00:34:14;17.38;;;11.07;;
29662;SDS011;16578;53.266;7.920;2023-03-01T00:36:39;18.50;;;10.95;;
29662;SDS011;16578;53.266;7.920;2023-03-01T00:39:05;13.77;;;10.45;;
29662;SDS011;16578;53.266;7.920;2023-03-01T00:41:35;15.13;;;10.82;;
29662;SDS011;16578;53.266;7.920;2023-03-01T00:44:01;18.70;;;11.98;;
29662;SDS011;16578;53.266;7.920;2023-03-01T00:46:27;15.43;;;10.23;;
29662;SDS011;16578;53.266;7.920;2023-03-01T00:48:54;14.38;;;10.07;;
29662;SDS011;16578;53.266;7.920;2023-03-01T00:51:24;17.55;;;10.80;;
29662;SDS011;16578;53.266;7.920;2023-03-01T00:53:52;15.23;;;11.25;;
29662;SDS011;16578;53.266;7.920;2023-03-01T00:56:20;16.63;;;11.77;;
29662;SDS011;16578;53.266;7.920;2023-03-01T00:58:46;17.73;;;11.43;;
29662;SDS011;16578;53.266;7.920;2023-03-01T01:01:13;14.23;;;10.25;;
29662;SDS011;16578;53.266;7.920;2023-03-01T01:03:51;14.27;;;10.50;;
29662;SDS011;16578;53.266;7.920;2023-03-01T01:06:20;17.58;;;11.30;;
29662;SDS011;16578;53.266;7.920;2023-03-01T01:08:46;18.63;;;11.63;;
29662;SDS011;16578;53.266;7.920;2023-03-01T01:11:12;14.00;;;10.85;;
29662;SDS011;16578;53.266;7.920;2023-03-01T01:13:39;16.80;;;10.88;;
29662;SDS011;16578;53.266;7.920;2023-03-01T01:16:05;18.33;;;11.13;;
29662;SDS011;16578;53.266;7.920;2023-03-01T01:18:31;18.50;;;11.40;;
29662;SDS011;16578;53.266;7.920;2023-03-01T01:20:57;17.02;;;11.52;;
29662;SDS011;16578;53.266;7.920;2023-03-01T01:23:22;17.98;;;11.52;;
29662;SDS011;16578;53.266;7.920;2023-03-01T01:25:48;17.55;;;10.98;;
29662;SDS011;16578;53.266;7.920;2023-03-01T01:28:13;15.00;;;10.73;;
29662;SDS011;16578;53.266;7.920;2023-03-01T01:30:39;14.50;;;10.35;;
29662;SDS011;16578;53.266;7.920;2023-03-01T01:33:05;16.75;;;10.90;;
29662;SDS011;16578;53.266;7.920;2023-03-01T01:35:30;16.73;;;11.48;;
29662;SDS011;16578;53.266;7.920;2023-03-01T01:37:56;19.63;;;11.32;;
29662;SDS011;16578;53.266;7.920;2023-03-01T01:40:21;18.27;;;11.82;;
29662;SDS011;16578;53.266;7.920;2023-03-01T01:42:47;14.23;;;10.25;;
29662;SDS011;16578;53.266;7.920;2023-03-01T01:45:55;18.52;;;12.10;;
29662;SDS011;16578;53.266;7.920;2023-03-01T01:48:05;16.70;;;11.32;;
29662;SDS011;16578;53.266;7.920;2023-03-01T01:50:36;15.00;;;11.18;;
29662;SDS011;16578;53.266;7.920;2023-03-01T01:53:05;16.10;;;10.50;;
29662;SDS011;16578;53.266;7.920;2023-03-01T01:55:34;16.35;;;11.20;;
29662;SDS011;16578;53.266;7.920;2023-03-01T01:58:04;13.05;;;10.32;;
29662;SDS011;16578;53.266;7.920;2023-03-01T02:00:33;14.38;;;10.10;;
29662;SDS011;16578;53.266;7.920;2023-03-01T02:03:03;15.07;;;10.93;;
29662;SDS011;16578;53.266;7.920;2023-03-01T02:08:15;17.37;;;11.40;;
29662;SDS011;16578;53.266;7.920;2023-03-01T02:10:44;16.92;;;11.05;;
29662;SDS011;16578;53.266;7.920;2023-03-01T02:13:11;16.33;;;10.40;;
29662;SDS011;16578;53.266;7.920;2023-03-01T02:15:38;18.17;;;11.88;;
29662;SDS011;16578;53.266;7.920;2023-03-01T02:18:05;15.65;;;11.55;;
29662;SDS011;16578;53.266;7.920;2023-03-01T02:23:36;15.68;;;10.65;;
29662;SDS011;16578;53.266;7.920;2023-03-01T02:26:04;22.63;;;14.02;;
29662;SDS011;16578;53.266;7.920;2023-03-01T02:28:44;26.75;;;14.65;;
29662;SDS011;16578;53.266;7.920;2023-03-01T02:31:10;24.83;;;14.05;;
29662;SDS011;16578;53.266;7.920;2023-03-01T02:33:58;26.85;;;15.07;;
29662;SDS011;16578;53.266;7.920;2023-03-01T02:36:26;26.42;;;14.68;;
29662;SDS011;16578;53.266;7.920;2023-03-01T02:38:56;25.13;;;13.80;;
29662;SDS011;16578;53.266;7.920;2023-03-01T02:43:50;18.70;;;11.30;;
29662;SDS011;16578;53.266;7.920;2023-03-01T02:46:16;20.00;;;12.13;;
29662;SDS011;16578;53.266;7.920;2023-03-01T02:48:49;19.25;;;11.52;;
29662;SDS011;16578;53.266;7.920;2023-03-01T02:51:22;24.05;;;12.73;;
29662;SDS011;16578;53.266;7.920;2023-03-01T02:54:08;21.40;;;11.75;;
29662;SDS011;16578;53.266;7.920;2023-03-01T02:56:49;15.10;;;10.67;;
29662;SDS011;16578;53.266;7.920;2023-03-01T02:59:16;21.63;;;12.13;;
29662;SDS011;16578;53.266;7.920;2023-03-01T03:01:45;22.15;;;13.70;;
29662;SDS011;16578;53.266;7.920;2023-03-01T03:04:13;20.65;;;11.95;;
29662;SDS011;16578;53.266;7.920;2023-03-01T03:06:44;19.45;;;12.30;;
29662;SDS011;16578;53.266;7.920;2023-03-01T03:09:11;21.05;;;12.95;;
29662;SDS011;16578;53.266;7.920;2023-03-01T03:11:38;31.60;;;14.07;;
29662;SDS011;16578;53.266;7.920;2023-03-01T03:14:05;30.88;;;16.40;;
29662;SDS011;16578;53.266;7.920;2023-03-01T03:16:37;30.48;;;17.90;;
29662;SDS011;16578;53.266;7.920;2023-03-01T03:19:10;38.45;;;21.95;;
29662;SDS011;16578;53.266;7.920;2023-03-01T03:21:36;49.47;;;22.65;;
29662;SDS011;16578;53.266;7.920;2023-03-01T03:24:02;52.33;;;23.75;;
29662;SDS011;16578;53.266;7.920;2023-03-01T03:26:28;45.17;;;21.85;;
29662;SDS011;16578;53.266;7.920;2023-03-01T03:28:54;60.85;;;21.90;;
29662;SDS011;16578;53.266;7.920;2023-03-01T03:31:20;57.50;;;20.05;;
29662;SDS011;16578;53.266;7.920;2023-03-01T03:33:45;49.92;;;20.08;;
29662;SDS011;16578;53.266;7.920;2023-03-01T03:36:15;34.30;;;19.55;;
29662;SDS011;16578;53.266;7.920;2023-03-01T03:38:42;42.33;;;22.90;;
29662;SDS011;16578;53.266;7.920;2023-03-01T03:41:09;41.47;;;22.45;;
29662;SDS011;16578;53.266;7.920;2023-03-01T03:43:36;44.47;;;23.67;;
29662;SDS011;16578;53.266;7.920;2023-03-01T03:46:03;36.05;;;20.90;;
29662;SDS011;16578;53.266;7.920;2023-03-01T03:48:41;40.40;;;20.65;;
29662;SDS011;16578;53.266;7.920;2023-03-01T03:51:09;31.90;;;19.08;;
29662;SDS011;16578;53.266;7.920;2023-03-01T03:53:36;33.25;;;18.77;;
29662;SDS011;16578;53.266;7.920;2023-03-01T03:56:02;31.52;;;18.23;;
29662;SDS011;16578;53.266;7.920;2023-03-01T03:58:27;31.55;;;17.95;;
29662;SDS011;16578;53.266;7.920;2023-03-01T04:00:56;34.13;;;18.13;;
29662;SDS011;16578;53.266;7.920;2023-03-01T04:03:23;30.20;;;16.25;;
29662;SDS011;16578;53.266;7.920;2023-03-01T04:05:50;27.77;;;15.77;;
29662;SDS011;16578;53.266;7.920;2023-03-01T04:08:17;26.27;;;15.48;;
29662;SDS011;16578;53.266;7.920;2023-03-01T04:10:45;23.95;;;14.80;;
29662;SDS011;16578;53.266;7.920;2023-03-01T04:13:17;21.00;;;13.65;;
29662;SDS011;16578;53.266;7.920;2023-03-01T04:15:49;22.75;;;14.95;;
29662;SDS011;16578;53.266;7.920;2023-03-01T04:18:16;23.17;;;14.65;;
29662;SDS011;16578;53.266;7.920;2023-03-01T04:25:39;20.33;;;13.25;;
29662;SDS011;16578;53.266;7.920;2023-03-01T04:28:10;20.55;;;12.73;;
29662;SDS011;16578;53.266;7.920;2023-03-01T04:30:37;19.25;;;13.32;;
29662;SDS011;16578;53.266;7.920;2023-03-01T04:33:06;24.25;;;14.40;;
29662;SDS011;16578;53.266;7.920;2023-03-01T04:35:34;25.33;;;15.45;;
29662;SDS011;16578;53.266;7.920;2023-03-01T04:38:01;24.75;;;15.10;;
29662;SDS011;16578;53.266;7.920;2023-03-01T04:40:27;23.83;;;14.07;;
29662;SDS011;16578;53.266;7.920;2023-03-01T04:42:53;24.70;;;15.48;;
29662;SDS011;16578;53.266;7.920;2023-03-01T04:45:19;29.38;;;16.60;;
29662;SDS011;16578;53.266;7.920;2023-03-01T04:47:45;32.13;;;16.75;;
29662;SDS011;16578;53.266;7.920;2023-03-01T04:50:12;29.40;;;15.65;;
29662;SDS011;16578;53.266;7.920;2023-03-01T04:52:42;28.27;;;14.68;;
29662;SDS011;16578;53.266;7.920;2023-03-01T04:55:09;30.42;;;14.93;;
29662;SDS011;16578;53.266;7.920;2023-03-01T04:57:35;38.00;;;14.82;;
29662;SDS011;16578;53.266;7.920;2023-03-01T05:00:01;28.48;;;14.50;;
29662;SDS011;16578;53.266;7.920;2023-03-01T05:02:44;31.05;;;13.85;;
29662;SDS011;16578;53.266;7.920;2023-03-01T05:05:21;62.58;;;17.45;;
29662;SDS011;16578;53.266;7.920;2023-03-01T05:07:50;68.07;;;17.25;;
29662;SDS011;16578;53.266;7.920;2023-03-01T05:10:17;42.75;;;15.07;;
29662;SDS011;16578;53.266;7.920;2023-03-01T05:12:42;37.58;;;15.02;;
29662;SDS011;16578;53.266;7.920;2023-03-01T05:15:08;51.45;;;16.17;;
29662;SDS011;16578;53.266;7.920;2023-03-01T05:17:34;34.22;;;16.63;;
29662;SDS011;16578;53.266;7.920;2023-03-01T05:20:00;32.22;;;15.25;;
29662;SDS011;16578;53.266;7.920;2023-03-01T05:22:25;91.15;;;16.33;;
29662;SDS011;16578;53.266;7.920;2023-03-01T05:24:51;38.35;;;14.38;;
29662;SDS011;16578;53.266;7.920;2023-03-01T05:27:19;26.73;;;14.13;;
29662;SDS011;16578;53.266;7.920;2023-03-01T05:29:47;76.20;;;14.93;;
29662;SDS011;16578;53.266;7.920;2023-03-01T05:32:12;52.10;;;14.57;;
29662;SDS011;16578;53.266;7.920;2023-03-01T05:34:40;42.00;;;16.15;;
29662;SDS011;16578;53.266;7.920;2023-03-01T05:37:06;30.75;;;14.82;;
29662;SDS011;16578;53.266;7.920;2023-03-01T05:39:32;45.47;;;14.70;;
29662;SDS011;16578;53.266;7.920;2023-03-01T05:41:59;23.75;;;14.73;;
29662;SDS011;16578;53.266;7.920;2023-03-01T05:44:26;23.52;;;14.50;;
29662;SDS011;16578;53.266;7.920;2023-03-01T05:46:53;29.10;;;15.80;;
29662;SDS011;16578;53.266;7.920;2023-03-01T05:49:19;29.17;;;14.85;;
29662;SDS011;16578;53.266;7.920;2023-03-01T05:51:49;28.55;;;14.98;;
29662;SDS011;16578;53.266;7.920;2023-03-01T05:54:16;33.97;;;15.25;;
29662;SDS011;16578;53.266;7.920;2023-03-01T05:56:43;30.17;;;14.00;;
29662;SDS011;16578;53.266;7.920;2023-03-01T05:59:09;40.92;;;15.90;;
29662;SDS011;16578;53.266;7.920;2023-03-01T06:01:35;66.28;;;15.90;;
29662;SDS011;16578;53.266;7.920;2023-03-01T06:04:01;56.42;;;15.20;;
29662;SDS011;16578;53.266;7.920;2023-03-01T06:06:27;30.52;;;14.20;;
29662;SDS011;16578;53.266;7.920;2023-03-01T06:08:53;26.33;;;13.73;;
29662;SDS011;16578;53.266;7.920;2023-03-01T06:11:19;23.98;;;12.80;;
29662;SDS011;16578;53.266;7.920;2023-03-01T06:13:45;26.50;;;11.15;;
29662;SDS011;16578;53.266;7.920;2023-03-01T06:16:11;47.88;;;13.80;;
29662;SDS011;16578;53.266;7.920;2023-03-01T06:18:37;27.70;;;12.70;;
29662;SDS011;16578;53.266;7.920;2023-03-01T06:21:03;35.90;;;11.68;;
29662;SDS011;16578;53.266;7.920;2023-03-01T06:23:30;34.30;;;12.02;;
29662;SDS011;16578;53.266;7.920;2023-03-01T06:25:55;23.10;;;11.32;;
29662;SDS011;16578;53.266;7.920;2023-03-01T06:28:21;42.22;;;12.65;;
29662;SDS011;16578;53.266;7.920;2023-03-01T06:30:47;21.63;;;13.23;;
29662;SDS011;16578;53.266;7.920;2023-03-01T06:33:13;35.72;;;13.20;;
29662;SDS011;16578;53.266;7.920;2023-03-01T06:35:38;22.02;;;12.10;;
29662;SDS011;16578;53.266;7.920;2023-03-01T06:38:04;20.20;;;12.57;;
29662;SDS011;16578;53.266;7.920;2023-03-01T06:40:31;23.15;;;13.63;;
29662;SDS011;16578;53.266;7.920;2023-03-01T06:42:57;29.08;;;13.15;;
29662;SDS011;16578;53.266;7.920;2023-03-01T06:45:24;42.72;;;14.23;;
29662;SDS011;16578;53.266;7.920;2023-03-01T06:47:50;42.80;;;14.15;;
29662;SDS011;16578;53.266;7.920;2023-03-01T06:50:16;34.50;;;12.43;;
29662;SDS011;16578;53.266;7.920;2023-03-01T06:52:42;29.15;;;14.18;;
29662;SDS011;16578;53.266;7.920;2023-03-01T06:55:09;35.08;;;13.65;;
29662;SDS011;16578;53.266;7.920;2023-03-01T06:57:36;18.58;;;11.90;;
29662;SDS011;16578;53.266;7.920;2023-03-01T07:00:02;19.50;;;12.93;;
29662;SDS011;16578;53.266;7.920;2023-03-01T07:02:28;23.13;;;13.45;;
29662;SDS011;16578;53.266;7.920;2023-03-01T07:04:54;26.48;;;13.48;;
29662;SDS011;16578;53.266;7.920;2023-03-01T07:07:19;25.38;;;14.98;;
29662;SDS011;16578;53.266;7.920;2023-03-01T07:09:45;55.75;;;15.48;;
29662;SDS011;16578;53.266;7.920;2023-03-01T07:12:13;76.20;;;17.50;;
29662;SDS011;16578;53.266;7.920;2023-03-01T07:14:38;68.60;;;17.38;;
29662;SDS011;16578;53.266;7.920;2023-03-01T07:17:04;46.10;;;16.65;;
29662;SDS011;16578;53.266;7.920;2023-03-01T07:19:29;31.10;;;17.50;;
29662;SDS011;16578;53.266;7.920;2023-03-01T07:21:55;40.80;;;18.30;;
29662;SDS011;16578;53.266;7.920;2023-03-01T07:24:20;36.88;;;17.50;;
29662;SDS011;16578;53.266;7.920;2023-03-01T07:26:50;31.77;;;17.02;;
29662;SDS011;16578;53.266;7.920;2023-03-01T07:29:16;28.60;;;17.58;;
29662;SDS011;16578;53.266;7.920;2023-03-01T07:31:42;25.48;;;16.83;;
29662;SDS011;16578;53.266;7.920;2023-03-01T07:34:08;29.08;;;15.32;;
29662;SDS011;16578;53.266;7.920;2023-03-01T07:36:34;27.67;;;16.33;;
29662;SDS011;16578;53.266;7.920;2023-03-01T07:38:59;29.75;;;17.05;;
29662;SDS011;16578;53.266;7.920;2023-03-01T07:41:27;24.40;;;15.20;;
29662;SDS011;16578;53.266;7.920;2023-03-01T07:43:53;25.15;;;15.27;;
29662;SDS011;16578;53.266;7.920;2023-03-01T07:46:18;23.30;;;15.23;;
29662;SDS011;16578;53.266;7.920;2023-03-01T07:48:44;23.05;;;14.80;;
29662;SDS011;16578;53.266;7.920;2023-03-01T07:51:10;23.52;;;14.70;;
29662;SDS011;16578;53.266;7.920;2023-03-01T07:53:36;25.40;;;16.17;;
29662;SDS011;16578;53.266;7.920;2023-03-01T07:56:11;23.60;;;15.88;;
29662;SDS011;16578;53.266;7.920;2023-03-01T07:58:40;24.67;;;17.00;;
29662;SDS011;16578;53.266;7.920;2023-03-01T08:01:08;28.20;;;17.90;;
29662;SDS011;16578;53.266;7.920;2023-03-01T08:03:36;29.25;;;18.38;;
29662;SDS011;16578;53.266;7.920;2023-03-01T08:06:03;29.95;;;19.08;;
29662;SDS011;16578;53.266;7.920;2023-03-01T08:10:57;28.90;;;16.52;;
29662;SDS011;16578;53.266;7.920;2023-03-01T08:13:27;28.67;;;17.65;;
29662;SDS011;16578;53.266;7.920;2023-03-01T08:15:53;37.53;;;21.58;;
29662;SDS011;16578;53.266;7.920;2023-03-01T08:18:19;32.03;;;20.40;;
29662;SDS011;16578;53.266;7.920;2023-03-01T08:20:46;35.22;;;20.95;;
29662;SDS011;16578;53.266;7.920;2023-03-01T08:23:11;40.25;;;22.85;;
29662;SDS011;16578;53.266;7.920;2023-03-01T08:25:37;36.33;;;21.35;;
29662;SDS011;16578;53.266;7.920;2023-03-01T08:28:03;37.42;;;23.65;;
29662;SDS011;16578;53.266;7.920;2023-03-01T08:30:29;34.67;;;21.17;;
29662;SDS011;16578;53.266;7.920;2023-03-01T08:32:54;33.33;;;20.83;;
29662;SDS011;16578;53.266;7.920;2023-03-01T08:35:20;36.90;;;22.15;;
29662;SDS011;16578;53.266;7.920;2023-03-01T08:37:46;39.60;;;23.33;;
29662;SDS011;16578;53.266;7.920;2023-03-01T08:40:12;35.20;;;21.92;;
29662;SDS011;16578;53.266;7.920;2023-03-01T08:42:38;36.17;;;21.40;;
29662;SDS011;16578;53.266;7.920;2023-03-01T08:45:05;33.20;;;20.73;;
29662;SDS011;16578;53.266;7.920;2023-03-01T08:47:31;47.92;;;28.00;;
29662;SDS011;16578;53.266;7.920;2023-03-01T08:49:58;58.20;;;35.10;;
29662;SDS011;16578;53.266;7.920;2023-03-01T08:52:24;40.50;;;26.35;;
29662;SDS011;16578;53.266;7.920;2023-03-01T08:54:50;52.83;;;31.08;;
29662;SDS011;16578;53.266;7.920;2023-03-01T08:57:16;47.33;;;28.15;;
29662;SDS011;16578;53.266;7.920;2023-03-01T08:59:42;36.42;;;21.92;;
29662;SDS011;16578;53.266;7.920;2023-03-01T09:02:11;43.17;;;23.50;;
29662;SDS011;16578;53.266;7.920;2023-03-01T09:04:39;40.20;;;23.20;;
29662;SDS011;16578;53.266;7.920;2023-03-01T09:07:05;43.35;;;27.30;;
29662;SDS011;16578;53.266;7.920;2023-03-01T09:09:31;42.05;;;25.05;;
29662;SDS011;16578;53.266;7.920;2023-03-01T09:11:57;36.08;;;23.23;;
29662;SDS011;16578;53.266;7.920;2023-03-01T09:14:22;41.03;;;26.23;;
29662;SDS011;16578;53.266;7.920;2023-03-01T09:16:48;38.33;;;24.65;;
29662;SDS011;16578;53.266;7.920;2023-03-01T09:19:14;35.60;;;24.38;;
29662;SDS011;16578;53.266;7.920;2023-03-01T09:21:39;37.00;;;22.48;;
29662;SDS011;16578;53.266;7.920;2023-03-01T09:24:05;33.15;;;21.83;;
29662;SDS011;16578;53.266;7.920;2023-03-01T09:26:36;31.05;;;21.77;;
29662;SDS011;16578;53.266;7.920;2023-03-01T09:29:02;32.75;;;22.25;;
29662;SDS011;16578;53.266;7.920;2023-03-01T09:31:27;34.25;;;22.67;;
29662;SDS011;16578;53.266;7.920;2023-03-01T09:33:53;34.92;;;22.85;;
29662;SDS011;16578;53.266;7.920;2023-03-01T09:36:21;29.80;;;20.90;;
29662;SDS011;16578;53.266;7.920;2023-03-01T09:38:48;31.38;;;21.02;;
29662;SDS011;16578;53.266;7.920;2023-03-01T09:43:56;26.25;;;19.05;;
29662;SDS011;16578;53.266;7.920;2023-03-01T09:46:37;26.50;;;18.48;;
29662;SDS011;16578;53.266;7.920;2023-03-01T09:49:10;26.83;;;18.50;;
29662;SDS011;16578;53.266;7.920;2023-03-01T09:51:41;26.38;;;18.65;;
29662;SDS011;16578;53.266;7.920;2023-03-01T09:54:08;26.67;;;18.73;;
29662;SDS011;16578;53.266;7.920;2023-03-01T09:59:33;26.75;;;18.92;;
29662;SDS011;16578;53.266;7.920;2023-03-01T10:04:55;26.35;;;18.13;;
29662;SDS011;16578;53.266;7.920;2023-03-01T10:07:43;22.58;;;16.92;;
29662;SDS011;16578;53.266;7.920;2023-03-01T10:10:35;21.00;;;15.07;;
29662;SDS011;16578;53.266;7.920;2023-03-01T10:13:08;23.23;;;16.13;;
29662;SDS011;16578;53.266;7.920;2023-03-01T10:15:50;21.73;;;15.45;;
29662;SDS011;16578;53.266;7.920;2023-03-01T10:18:23;20.30;;;15.40;;
29662;SDS011;16578;53.266;7.920;2023-03-01T10:21:19;20.70;;;14.35;;
29662;SDS011;16578;53.266;7.920;2023-03-01T10:23:45;21.02;;;14.15;;
29662;SDS011;16578;53.266;7.920;2023-03-01T10:31:48;22.20;;;13.63;;
29662;SDS011;16578;53.266;7.920;2023-03-01T10:34:21;19.17;;;13.90;;
29662;SDS011;16578;53.266;7.920;2023-03-01T10:37:16;21.02;;;13.88;;
29662;SDS011;16578;53.266;7.920;2023-03-01T10:39:56;18.42;;;12.88;;
29662;SDS011;16578;53.266;7.920;2023-03-01T10:42:35;16.30;;;12.50;;
29662;SDS011;16578;53.266;7.920;2023-03-01T10:45:37;15.25;;;11.70;;
29662;SDS011;16578;53.266;7.920;2023-03-01T10:50:46;15.95;;;11.98;;
29662;SDS011;16578;53.266;7.920;2023-03-01T10:55:45;19.15;;;11.52;;
29662;SDS011;16578;53.266;7.920;2023-03-01T11:00:51;15.63;;;11.98;;
29662;SDS011;16578;53.266;7.920;2023-03-01T11:03:20;13.57;;;10.95;;
29662;SDS011;16578;53.266;7.920;2023-03-01T11:05:55;16.65;;;12.55;;
29662;SDS011;16578;53.266;7.920;2023-03-01T11:08:33;17.75;;;12.30;;
29662;SDS011;16578;53.266;7.920;2023-03-01T11:14:01;19.25;;;12.18;;
29662;SDS011;16578;53.266;7.920;2023-03-01T11:16:34;20.65;;;13.23;;
29662;SDS011;16578;53.266;7.920;2023-03-01T11:21:38;19.67;;;14.90;;
29662;SDS011;16578;53.266;7.920;2023-03-01T11:24:12;20.17;;;14.23;;
29662;SDS011;16578;53.266;7.920;2023-03-01T11:26:43;17.80;;;13.52;;
29662;SDS011;16578;53.266;7.920;2023-03-01T11:29:15;18.98;;;13.38;;
29662;SDS011;16578;53.266;7.920;2023-03-01T11:31:50;18.42;;;13.73;;
29662;SDS011;16578;53.266;7.920;2023-03-01T11:34:19;17.35;;;13.70;;
29662;SDS011;16578;53.266;7.920;2023-03-01T11:36:58;18.15;;;13.45;;
29662;SDS011;16578;53.266;7.920;2023-03-01T11:42:12;20.65;;;14.98;;
29662;SDS011;16578;53.266;7.920;2023-03-01T11:44:47;19.17;;;14.73;;
29662;SDS011;16578;53.266;7.920;2023-03-01T11:52:29;19.80;;;14.00;;
29662;SDS011;16578;53.266;7.920;2023-03-01T11:55:09;22.52;;;15.65;;
29662;SDS011;16578;53.266;7.920;2023-03-01T11:57:43;23.55;;;17.65;;
29662;SDS011;16578;53.266;7.920;2023-03-01T12:05:55;21.83;;;15.35;;
29662;SDS011;16578;53.266;7.920;2023-03-01T12:14:13;22.33;;;15.73;;
29662;SDS011;16578;53.266;7.920;2023-03-01T12:17:04;23.52;;;18.30;;
29662;SDS011;16578;53.266;7.920;2023-03-01T12:22:11;27.17;;;20.95;;
29662;SDS011;16578;53.266;7.920;2023-03-01T12:24:51;23.38;;;17.17;;
29662;SDS011;16578;53.266;7.920;2023-03-01T12:33:29;24.40;;;18.52;;
29662;SDS011;16578;53.266;7.920;2023-03-01T12:41:38;21.65;;;15.25;;
29662;SDS011;16578;53.266;7.920;2023-03-01T12:44:32;19.20;;;15.20;;
29662;SDS011;16578;53.266;7.920;2023-03-01T12:47:30;23.27;;;16.77;;
29662;SDS011;16578;53.266;7.920;2023-03-01T12:52:52;18.52;;;14.63;;
29662;SDS011;16578;53.266;7.920;2023-03-01T13:01:01;22.05;;;13.18;;
29662;SDS011;16578;53.266;7.920;2023-03-01T13:03:51;17.90;;;12.90;;
29662;SDS011;16578;53.266;7.920;2023-03-01T13:06:43;20.48;;;14.70;;
29662;SDS011;16578;53.266;7.920;2023-03-01T13:11:56;15.80;;;12.25;;
29662;SDS011;16578;53.266;7.920;2023-03-01T13:16:51;18.80;;;14.63;;
29662;SDS011;16578;53.266;7.920;2023-03-01T13:19:21;19.50;;;14.23;;
29662;SDS011;16578;53.266;7.920;2023-03-01T13:21:49;17.70;;;13.43;;
29662;SDS011;16578;53.266;7.920;2023-03-01T13:24:39;19.13;;;14.05;;
29662;SDS011;16578;53.266;7.920;2023-03-01T13:29:43;19.17;;;15.02;;
29662;SDS011;16578;53.266;7.920;2023-03-01T13:32:28;20.55;;;16.73;;
29662;SDS011;16578;53.266;7.920;2023-03-01T13:37:42;22.48;;;17.27;;
29662;SDS011;16578;53.266;7.920;2023-03-01T13:42:47;21.80;;;17.05;;
29662;SDS011;16578;53.266;7.920;2023-03-01T13:45:16;22.35;;;17.95;;
29662;SDS011;16578;53.266;7.920;2023-03-01T13:47:45;21.48;;;17.55;;
29662;SDS011;16578;53.266;7.920;2023-03-01T13:50:21;22.75;;;17.52;;
29662;SDS011;16578;53.266;7.920;2023-03-01T13:52:56;25.73;;;20.63;;
29662;SDS011;16578;53.266;7.920;2023-03-01T13:58:44;24.25;;;18.15;;
29662;SDS011;16578;53.266;7.920;2023-03-01T14:01:27;24.55;;;18.80;;
29662;SDS011;16578;53.266;7.920;2023-03-01T14:03:57;23.55;;;18.38;;
29662;SDS011;16578;53.266;7.920;2023-03-01T14:06:25;22.55;;;17.35;;
29662;SDS011;16578;53.266;7.920;2023-03-01T14:09:00;22.55;;;20.15;;
29662;SDS011;16578;53.266;7.920;2023-03-01T14:16:58;27.10;;;20.50;;
29662;SDS011;16578;53.266;7.920;2023-03-01T14:19:38;27.50;;;21.27;;
29662;SDS011;16578;53.266;7.920;2023-03-01T14:22:12;27.67;;;20.93;;
29662;SDS011;16578;53.266;7.920;2023-03-01T14:24:43;27.98;;;22.52;;
29662;SDS011;16578;53.266;7.920;2023-03-01T14:27:14;24.13;;;18.50;;
29662;SDS011;16578;53.266;7.920;2023-03-01T14:29:40;25.40;;;21.42;;
29662;SDS011;16578;53.266;7.920;2023-03-01T14:32:10;24.50;;;19.80;;
29662;SDS011;16578;53.266;7.920;2023-03-01T14:34:47;25.52;;;19.05;;
29662;SDS011;16578;53.266;7.920;2023-03-01T14:37:22;24.58;;;18.58;;
29662;SDS011;16578;53.266;7.920;2023-03-01T14:39:54;23.80;;;18.98;;
29662;SDS011;16578;53.266;7.920;2023-03-01T14:42:21;25.35;;;19.92;;
29662;SDS011;16578;53.266;7.920;2023-03-01T14:44:50;26.70;;;19.88;;
29662;SDS011;16578;53.266;7.920;2023-03-01T14:47:38;24.45;;;19.00;;
29662;SDS011;16578;53.266;7.920;2023-03-01T14:52:37;24.40;;;19.17;;
29662;SDS011;16578;53.266;7.920;2023-03-01T14:55:21;26.98;;;19.73;;
29662;SDS011;16578;53.266;7.920;2023-03-01T14:57:59;25.67;;;17.95;;
29662;SDS011;16578;53.266;7.920;2023-03-01T15:00:28;25.40;;;18.48;;
29662;SDS011;16578;53.266;7.920;2023-03-01T15:02:56;25.02;;;19.30;;
29662;SDS011;16578;53.266;7.920;2023-03-01T15:05:32;23.60;;;19.02;;
29662;SDS011;16578;53.266;7.920;2023-03-01T15:07:58;23.00;;;18.90;;
29662;SDS011;16578;53.266;7.920;2023-03-01T15:10:27;25.88;;;19.83;;
29662;SDS011;16578;53.266;7.920;2023-03-01T15:12:55;25.02;;;19.73;;
29662;SDS011;16578;53.266;7.920;2023-03-01T15:15:23;26.23;;;22.30;;
29662;SDS011;16578;53.266;7.920;2023-03-01T15:17:59;27.98;;;19.83;;
29662;SDS011;16578;53.266;7.920;2023-03-01T15:20:27;25.85;;;20.67;;
29662;SDS011;16578;53.266;7.920;2023-03-01T15:22:55;25.05;;;18.95;;
29662;SDS011;16578;53.266;7.920;2023-03-01T15:25:26;25.85;;;18.30;;
29662;SDS011;16578;53.266;7.920;2023-03-01T15:27:54;26.50;;;19.48;;
29662;SDS011;16578;53.266;7.920;2023-03-01T15:30:32;27.67;;;19.05;;
29662;SDS011;16578;53.266;7.920;2023-03-01T15:35:53;22.13;;;17.60;;
29662;SDS011;16578;53.266;7.920;2023-03-01T15:38:28;24.42;;;18.05;;
29662;SDS011;16578;53.266;7.920;2023-03-01T15:41:25;24.90;;;17.23;;
29662;SDS011;16578;53.266;7.920;2023-03-01T15:43:53;23.80;;;18.65;;
29662;SDS011;16578;53.266;7.920;2023-03-01T15:46:25;20.45;;;16.25;;
29662;SDS011;16578;53.266;7.920;2023-03-01T15:48:58;23.73;;;17.73;;
29662;SDS011;16578;53.266;7.920;2023-03-01T15:51:30;21.67;;;16.35;;
29662;SDS011;16578;53.266;7.920;2023-03-01T15:54:07;22.20;;;16.60;;
29662;SDS011;16578;53.266;7.920;2023-03-01T15:56:44;22.05;;;17.63;;
29662;SDS011;16578;53.266;7.920;2023-03-01T15:59:10;19.60;;;16.10;;
29662;SDS011;16578;53.266;7.920;2023-03-01T16:01:40;19.17;;;15.23;;
29662;SDS011;16578;53.266;7.920;2023-03-01T16:04:06;20.77;;;15.25;;
29662;SDS011;16578;53.266;7.920;2023-03-01T16:06:31;18.80;;;14.10;;
29662;SDS011;16578;53.266;7.920;2023-03-01T16:08:57;17.70;;;13.65;;
29662;SDS011;16578;53.266;7.920;2023-03-01T16:11:22;17.58;;;14.23;;
29662;SDS011;16578;53.266;7.920;2023-03-01T16:13:48;19.30;;;16.15;;
29662;SDS011;16578;53.266;7.920;2023-03-01T16:16:15;19.90;;;14.27;;
29662;SDS011;16578;53.266;7.920;2023-03-01T16:18:42;19.30;;;15.98;;
29662;SDS011;16578;53.266;7.920;2023-03-01T16:21:11;19.73;;;17.50;;
29662;SDS011;16578;53.266;7.920;2023-03-01T16:23:40;22.15;;;16.80;;
29662;SDS011;16578;53.266;7.920;2023-03-01T16:26:06;21.25;;;15.48;;